sensor_id;sensor_type;location;lat;lon;timestamp;temperature;humidity
16200;DHT22;8207;52.494;4.654;2023-06-14T00:01:57;18.90;99.90
16200;DHT22;8207;52.494;4.654;2023-06-14T00:04:24;18.80;99.90
16200;DHT22;8207;52.494;4.654;2023-06-14T00:06:51;18.80;99.90
16200;DHT22;8207;52.494;4.654;2023-06-14T00:09:18;18.80;99.90
16200;DHT22;8207;52.494;4.654;2023-06-14T00:11:45;18.80;99.90
16200;DHT22;8207;52.494;4.654;2023-06-14T00:14:13;18.70;99.90
16200;DHT22;8207;52.494;4.654;2023-06-14T00:16:41;18.70;99.90
16200;DHT22;8207;52.494;4.654;2023-06-14T00:19:09;18.70;99.90
16200;DHT22;8207;52.494;4.654;2023-06-14T00:21:36;18.60;99.90
16200;DHT22;8207;52.494;4.654;2023-06-14T00:24:04;18.60;99.90
16200;DHT22;8207;52.494;4.654;2023-06-14T00:26:31;18.50;99.90
16200;DHT22;8207;52.494;4.654;2023-06-14T00:28:58;18.50;99.90
16200;DHT22;8207;52.494;4.654;2023-06-14T00:31:25;18.50;99.90
16200;DHT22;8207;52.494;4.654;2023-06-14T00:33:54;18.40;99.90
16200;DHT22;8207;52.494;4.654;2023-06-14T00:36:21;18.40;99.90
16200;DHT22;8207;52.494;4.654;2023-06-14T00:38:48;18.40;99.90
16200;DHT22;8207;52.494;4.654;2023-06-14T00:41:15;18.30;99.90
16200;DHT22;8207;52.494;4.654;2023-06-14T00:43:42;18.30;99.90
16200;DHT22;8207;52.494;4.654;2023-06-14T00:46:09;18.30;99.90
16200;DHT22;8207;52.494;4.654;2023-06-14T00:48:37;18.20;99.90
16200;DHT22;8207;52.494;4.654;2023-06-14T00:51:06;18.20;99.90
16200;DHT22;8207;52.494;4.654;2023-06-14T00:53:33;18.20;99.90
16200;DHT22;8207;52.494;4.654;2023-06-14T00:56:01;18.20;99.90
16200;DHT22;8207;52.494;4.654;2023-06-14T00:58:28;18.20;99.90
16200;DHT22;8207;52.494;4.654;2023-06-14T01:00:56;18.10;99.90
16200;DHT22;8207;52.494;4.654;2023-06-14T01:03:23;18.10;99.90
16200;DHT22;8207;52.494;4.654;2023-06-14T01:05:53;18.10;99.90
16200;DHT22;8207;52.494;4.654;2023-06-14T01:08:37;18.00;99.90
16200;DHT22;8207;52.494;4.654;2023-06-14T01:11:15;18.00;99.90
16200;DHT22;8207;52.494;4.654;2023-06-14T01:13:46;18.00;99.90
16200;DHT22;8207;52.494;4.654;2023-06-14T01:16:14;18.00;99.90
16200;DHT22;8207;52.494;4.654;2023-06-14T01:18:41;18.00;99.90
16200;DHT22;8207;52.494;4.654;2023-06-14T01:21:20;17.90;99.90
16200;DHT22;8207;52.494;4.654;2023-06-14T01:23:49;17.90;99.90
16200;DHT22;8207;52.494;4.654;2023-06-14T01:26:18;17.90;99.90
16200;DHT22;8207;52.494;4.654;2023-06-14T01:28:46;17.90;99.90
16200;DHT22;8207;52.494;4.654;2023-06-14T01:31:19;17.80;99.90
16200;DHT22;8207;52.494;4.654;2023-06-14T01:33:48;17.80;99.90
16200;DHT22;8207;52.494;4.654;2023-06-14T01:36:15;17.80;99.90
16200;DHT22;8207;52.494;4.654;2023-06-14T01:38:44;17.80;99.90
16200;DHT22;8207;52.494;4.654;2023-06-14T01:41:13;17.80;99.90
16200;DHT22;8207;52.494;4.654;2023-06-14T01:43:41;17.70;99.90
16200;DHT22;8207;52.494;4.654;2023-06-14T01:46:09;17.80;99.90
16200;DHT22;8207;52.494;4.654;2023-06-14T01:48:37;17.80;99.90
16200;DHT22;8207;52.494;4.654;2023-06-14T01:51:04;17.70;99.90
16200;DHT22;8207;52.494;4.654;2023-06-14T01:53:31;17.80;99.90
16200;DHT22;8207;52.494;4.654;2023-06-14T01:55:58;17.80;99.90
16200;DHT22;8207;52.494;4.654;2023-06-14T01:58:27;17.80;99.90
16200;DHT22;8207;52.494;4.654;2023-06-14T02:00:54;17.70;99.90
16200;DHT22;8207;52.494;4.654;2023-06-14T02:03:22;17.70;99.90
16200;DHT22;8207;52.494;4.654;2023-06-14T02:05:49;17.70;99.90
16200;DHT22;8207;52.494;4.654;2023-06-14T02:08:16;17.70;99.90
16200;DHT22;8207;52.494;4.654;2023-06-14T02:10:43;17.70;99.90
16200;DHT22;8207;52.494;4.654;2023-06-14T02:13:10;17.70;99.90
16200;DHT22;8207;52.494;4.654;2023-06-14T02:15:38;17.70;99.90
16200;DHT22;8207;52.494;4.654;2023-06-14T02:18:05;17.70;99.90
16200;DHT22;8207;52.494;4.654;2023-06-14T02:20:33;17.70;99.90
16200;DHT22;8207;52.494;4.654;2023-06-14T02:23:01;17.70;99.90
16200;DHT22;8207;52.494;4.654;2023-06-14T02:25:28;17.70;99.90
16200;DHT22;8207;52.494;4.654;2023-06-14T02:27:55;17.70;99.90
16200;DHT22;8207;52.494;4.654;2023-06-14T02:30:22;17.60;99.90
16200;DHT22;8207;52.494;4.654;2023-06-14T02:32:50;17.70;99.90
16200;DHT22;8207;52.494;4.654;2023-06-14T02:35:19;17.60;99.90
16200;DHT22;8207;52.494;4.654;2023-06-14T02:37:47;17.60;99.90
16200;DHT22;8207;52.494;4.654;2023-06-14T02:40:14;17.60;99.90
16200;DHT22;8207;52.494;4.654;2023-06-14T02:42:41;17.50;99.90
16200;DHT22;8207;52.494;4.654;2023-06-14T02:45:08;17.50;99.90
16200;DHT22;8207;52.494;4.654;2023-06-14T02:47:36;17.50;99.90
16200;DHT22;8207;52.494;4.654;2023-06-14T02:50:06;17.40;99.90
16200;DHT22;8207;52.494;4.654;2023-06-14T02:52:33;17.40;99.90
16200;DHT22;8207;52.494;4.654;2023-06-14T02:55:00;17.40;99.90
16200;DHT22;8207;52.494;4.654;2023-06-14T02:57:27;17.40;99.90
16200;DHT22;8207;52.494;4.654;2023-06-14T02:59:54;17.40;99.90
16200;DHT22;8207;52.494;4.654;2023-06-14T03:02:21;17.30;99.90
16200;DHT22;8207;52.494;4.654;2023-06-14T03:04:47;17.30;99.90
16200;DHT22;8207;52.494;4.654;2023-06-14T03:07:16;17.20;99.90
16200;DHT22;8207;52.494;4.654;2023-06-14T03:09:45;17.20;99.90
16200;DHT22;8207;52.494;4.654;2023-06-14T03:12:12;17.20;99.90
16200;DHT22;8207;52.494;4.654;2023-06-14T03:14:40;17.30;99.90
16200;DHT22;8207;52.494;4.654;2023-06-14T03:17:07;17.20;99.90
16200;DHT22;8207;52.494;4.654;2023-06-14T03:19:35;17.20;99.90
16200;DHT22;8207;52.494;4.654;2023-06-14T03:22:02;17.10;99.90
16200;DHT22;8207;52.494;4.654;2023-06-14T03:24:30;17.10;99.90
16200;DHT22;8207;52.494;4.654;2023-06-14T03:27:02;17.10;99.90
16200;DHT22;8207;52.494;4.654;2023-06-14T03:29:29;17.10;99.90
16200;DHT22;8207;52.494;4.654;2023-06-14T03:31:58;17.00;99.90
16200;DHT22;8207;52.494;4.654;2023-06-14T03:34:25;17.00;99.90
16200;DHT22;8207;52.494;4.654;2023-06-14T03:36:52;17.00;99.90
16200;DHT22;8207;52.494;4.654;2023-06-14T03:39:19;16.90;99.90
16200;DHT22;8207;52.494;4.654;2023-06-14T03:41:47;16.90;99.90
16200;DHT22;8207;52.494;4.654;2023-06-14T03:44:16;16.90;99.90
16200;DHT22;8207;52.494;4.654;2023-06-14T03:46:44;16.90;99.90
16200;DHT22;8207;52.494;4.654;2023-06-14T03:49:11;17.00;99.90
16200;DHT22;8207;52.494;4.654;2023-06-14T03:51:38;17.00;99.90
16200;DHT22;8207;52.494;4.654;2023-06-14T03:54:06;16.90;99.90
16200;DHT22;8207;52.494;4.654;2023-06-14T03:56:33;16.90;99.90
16200;DHT22;8207;52.494;4.654;2023-06-14T03:59:02;16.80;99.90
16200;DHT22;8207;52.494;4.654;2023-06-14T04:01:29;16.80;99.90
16200;DHT22;8207;52.494;4.654;2023-06-14T04:03:57;16.80;99.90
16200;DHT22;8207;52.494;4.654;2023-06-14T04:06:24;16.80;99.90
16200;DHT22;8207;52.494;4.654;2023-06-14T04:08:58;16.80;99.90
16200;DHT22;8207;52.494;4.654;2023-06-14T04:11:29;16.80;99.90
16200;DHT22;8207;52.494;4.654;2023-06-14T04:13:56;16.90;99.90
16200;DHT22;8207;52.494;4.654;2023-06-14T04:16:25;16.90;99.90
16200;DHT22;8207;52.494;4.654;2023-06-14T04:18:52;16.90;99.90
16200;DHT22;8207;52.494;4.654;2023-06-14T04:21:20;17.00;99.90
16200;DHT22;8207;52.494;4.654;2023-06-14T04:23:49;17.00;99.90
16200;DHT22;8207;52.494;4.654;2023-06-14T04:26:18;17.10;99.90
16200;DHT22;8207;52.494;4.654;2023-06-14T04:28:45;17.10;99.90
16200;DHT22;8207;52.494;4.654;2023-06-14T04:31:12;17.20;99.90
16200;DHT22;8207;52.494;4.654;2023-06-14T04:33:41;17.20;99.90
16200;DHT22;8207;52.494;4.654;2023-06-14T04:36:11;17.20;99.90
16200;DHT22;8207;52.494;4.654;2023-06-14T04:38:38;17.20;99.90
16200;DHT22;8207;52.494;4.654;2023-06-14T04:41:05;17.30;99.90
16200;DHT22;8207;52.494;4.654;2023-06-14T04:43:32;17.30;99.90
16200;DHT22;8207;52.494;4.654;2023-06-14T04:46:03;17.30;99.90
16200;DHT22;8207;52.494;4.654;2023-06-14T04:48:31;17.30;99.90
16200;DHT22;8207;52.494;4.654;2023-06-14T04:50:59;17.40;99.90
16200;DHT22;8207;52.494;4.654;2023-06-14T04:53:26;17.40;99.90
16200;DHT22;8207;52.494;4.654;2023-06-14T04:55:54;17.50;99.90
16200;DHT22;8207;52.494;4.654;2023-06-14T04:58:21;17.60;99.90
16200;DHT22;8207;52.494;4.654;2023-06-14T05:00:48;17.70;99.90
16200;DHT22;8207;52.494;4.654;2023-06-14T05:03:15;17.90;99.90
16200;DHT22;8207;52.494;4.654;2023-06-14T05:05:43;18.10;99.90
16200;DHT22;8207;52.494;4.654;2023-06-14T05:08:12;18.40;99.90
16200;DHT22;8207;52.494;4.654;2023-06-14T05:10:39;18.80;99.90
16200;DHT22;8207;52.494;4.654;2023-06-14T05:13:06;19.00;99.90
16200;DHT22;8207;52.494;4.654;2023-06-14T05:15:33;19.40;99.90
16200;DHT22;8207;52.494;4.654;2023-06-14T05:18:00;19.70;99.90
16200;DHT22;8207;52.494;4.654;2023-06-14T05:20:28;19.90;99.90
16200;DHT22;8207;52.494;4.654;2023-06-14T05:22:55;20.10;99.90
16200;DHT22;8207;52.494;4.654;2023-06-14T05:25:24;20.40;99.90
16200;DHT22;8207;52.494;4.654;2023-06-14T05:27:51;20.70;99.90
16200;DHT22;8207;52.494;4.654;2023-06-14T05:30:18;20.80;99.90
16200;DHT22;8207;52.494;4.654;2023-06-14T05:32:45;21.00;99.90
16200;DHT22;8207;52.494;4.654;2023-06-14T05:35:12;21.30;99.90
16200;DHT22;8207;52.494;4.654;2023-06-14T05:37:39;21.50;99.90
16200;DHT22;8207;52.494;4.654;2023-06-14T05:40:08;21.70;99.90
16200;DHT22;8207;52.494;4.654;2023-06-14T05:42:36;21.80;99.90
16200;DHT22;8207;52.494;4.654;2023-06-14T05:45:04;21.90;99.90
16200;DHT22;8207;52.494;4.654;2023-06-14T05:47:31;22.20;99.90
16200;DHT22;8207;52.494;4.654;2023-06-14T05:49:58;22.50;99.90
16200;DHT22;8207;52.494;4.654;2023-06-14T05:52:25;22.60;99.90
16200;DHT22;8207;52.494;4.654;2023-06-14T05:54:52;22.50;99.90
16200;DHT22;8207;52.494;4.654;2023-06-14T05:57:19;22.60;99.90
16200;DHT22;8207;52.494;4.654;2023-06-14T05:59:47;22.80;99.90
16200;DHT22;8207;52.494;4.654;2023-06-14T06:02:16;23.00;99.90
16200;DHT22;8207;52.494;4.654;2023-06-14T06:04:42;22.90;99.90
16200;DHT22;8207;52.494;4.654;2023-06-14T06:07:09;22.90;99.90
16200;DHT22;8207;52.494;4.654;2023-06-14T06:09:37;22.90;99.90
16200;DHT22;8207;52.494;4.654;2023-06-14T06:12:06;22.90;99.90
16200;DHT22;8207;52.494;4.654;2023-06-14T06:14:33;23.10;99.90
16200;DHT22;8207;52.494;4.654;2023-06-14T06:17:01;23.10;99.90
16200;DHT22;8207;52.494;4.654;2023-06-14T06:19:28;23.40;99.90
16200;DHT22;8207;52.494;4.654;2023-06-14T06:21:55;23.40;99.90
16200;DHT22;8207;52.494;4.654;2023-06-14T06:24:22;23.30;99.90
16200;DHT22;8207;52.494;4.654;2023-06-14T06:26:49;23.50;99.90
16200;DHT22;8207;52.494;4.654;2023-06-14T06:29:16;23.90;99.90
16200;DHT22;8207;52.494;4.654;2023-06-14T06:31:43;24.20;99.90
16200;DHT22;8207;52.494;4.654;2023-06-14T06:34:13;24.60;99.90
16200;DHT22;8207;52.494;4.654;2023-06-14T06:36:39;25.00;99.90
16200;DHT22;8207;52.494;4.654;2023-06-14T06:39:07;25.00;99.90
16200;DHT22;8207;52.494;4.654;2023-06-14T06:41:36;25.30;99.90
16200;DHT22;8207;52.494;4.654;2023-06-14T06:44:03;25.60;99.90
16200;DHT22;8207;52.494;4.654;2023-06-14T06:46:30;25.70;99.90
16200;DHT22;8207;52.494;4.654;2023-06-14T06:48:57;26.00;99.90
16200;DHT22;8207;52.494;4.654;2023-06-14T06:51:26;26.10;99.90
16200;DHT22;8207;52.494;4.654;2023-06-14T06:53:53;26.50;99.90
16200;DHT22;8207;52.494;4.654;2023-06-14T06:56:20;26.50;99.90
16200;DHT22;8207;52.494;4.654;2023-06-14T06:58:48;26.90;99.90
16200;DHT22;8207;52.494;4.654;2023-06-14T07:01:15;27.10;99.90
16200;DHT22;8207;52.494;4.654;2023-06-14T07:03:42;27.00;99.90
16200;DHT22;8207;52.494;4.654;2023-06-14T07:06:09;27.00;99.90
16200;DHT22;8207;52.494;4.654;2023-06-14T07:08:38;27.20;99.90
16200;DHT22;8207;52.494;4.654;2023-06-14T07:11:05;27.00;99.90
16200;DHT22;8207;52.494;4.654;2023-06-14T07:13:32;27.10;99.90
16200;DHT22;8207;52.494;4.654;2023-06-14T07:15:59;27.00;99.90
16200;DHT22;8207;52.494;4.654;2023-06-14T07:18:26;26.70;99.90
16200;DHT22;8207;52.494;4.654;2023-06-14T07:20:53;26.70;99.90
16200;DHT22;8207;52.494;4.654;2023-06-14T07:23:21;26.70;99.90
16200;DHT22;8207;52.494;4.654;2023-06-14T07:25:49;26.70;99.90
16200;DHT22;8207;52.494;4.654;2023-06-14T07:28:16;27.00;99.90
16200;DHT22;8207;52.494;4.654;2023-06-14T07:30:44;27.10;99.90
16200;DHT22;8207;52.494;4.654;2023-06-14T07:33:11;27.40;99.90
16200;DHT22;8207;52.494;4.654;2023-06-14T07:35:39;27.00;99.90
16200;DHT22;8207;52.494;4.654;2023-06-14T07:38:05;26.70;99.90
16200;DHT22;8207;52.494;4.654;2023-06-14T07:40:32;26.70;99.90
16200;DHT22;8207;52.494;4.654;2023-06-14T07:43:00;26.90;99.90
16200;DHT22;8207;52.494;4.654;2023-06-14T07:45:28;26.90;99.90
16200;DHT22;8207;52.494;4.654;2023-06-14T07:47:55;26.70;99.90
16200;DHT22;8207;52.494;4.654;2023-06-14T07:50:22;26.80;99.90
16200;DHT22;8207;52.494;4.654;2023-06-14T07:52:48;27.40;99.90
16200;DHT22;8207;52.494;4.654;2023-06-14T07:55:15;27.70;99.90
16200;DHT22;8207;52.494;4.654;2023-06-14T07:57:43;28.00;99.90
16200;DHT22;8207;52.494;4.654;2023-06-14T08:00:13;28.20;99.90
16200;DHT22;8207;52.494;4.654;2023-06-14T08:02:41;28.60;99.90
16200;DHT22;8207;52.494;4.654;2023-06-14T08:05:09;28.90;99.90
16200;DHT22;8207;52.494;4.654;2023-06-14T08:07:37;29.30;99.90
16200;DHT22;8207;52.494;4.654;2023-06-14T08:10:04;29.60;99.90
16200;DHT22;8207;52.494;4.654;2023-06-14T08:12:32;29.70;99.90
16200;DHT22;8207;52.494;4.654;2023-06-14T08:14:59;29.80;99.90
16200;DHT22;8207;52.494;4.654;2023-06-14T08:17:27;29.30;99.90
16200;DHT22;8207;52.494;4.654;2023-06-14T08:19:55;28.90;99.90
16200;DHT22;8207;52.494;4.654;2023-06-14T08:22:22;28.80;99.90
16200;DHT22;8207;52.494;4.654;2023-06-14T08:24:50;29.00;99.90
16200;DHT22;8207;52.494;4.654;2023-06-14T08:27:19;28.70;99.90
16200;DHT22;8207;52.494;4.654;2023-06-14T08:29:46;28.50;99.90
16200;DHT22;8207;52.494;4.654;2023-06-14T08:32:13;28.80;99.90
16200;DHT22;8207;52.494;4.654;2023-06-14T08:34:42;29.00;99.90
16200;DHT22;8207;52.494;4.654;2023-06-14T08:37:08;29.00;99.90
16200;DHT22;8207;52.494;4.654;2023-06-14T08:39:36;29.50;99.90
16200;DHT22;8207;52.494;4.654;2023-06-14T08:42:05;29.80;99.90
16200;DHT22;8207;52.494;4.654;2023-06-14T08:44:34;30.20;99.90
16200;DHT22;8207;52.494;4.654;2023-06-14T08:47:01;30.60;99.90
16200;DHT22;8207;52.494;4.654;2023-06-14T08:49:29;30.70;99.90
16200;DHT22;8207;52.494;4.654;2023-06-14T08:51:59;30.80;99.90
16200;DHT22;8207;52.494;4.654;2023-06-14T08:54:28;30.50;99.90
16200;DHT22;8207;52.494;4.654;2023-06-14T08:56:56;30.70;99.90
16200;DHT22;8207;52.494;4.654;2023-06-14T08:59:24;30.80;99.90
16200;DHT22;8207;52.494;4.654;2023-06-14T09:01:52;30.70;99.90
16200;DHT22;8207;52.494;4.654;2023-06-14T09:04:20;30.60;99.90
16200;DHT22;8207;52.494;4.654;2023-06-14T09:06:47;30.80;99.90
16200;DHT22;8207;52.494;4.654;2023-06-14T09:09:19;30.80;99.90
16200;DHT22;8207;52.494;4.654;2023-06-14T09:11:46;31.10;99.90
16200;DHT22;8207;52.494;4.654;2023-06-14T09:14:13;31.30;99.90
16200;DHT22;8207;52.494;4.654;2023-06-14T09:16:40;31.20;99.90
16200;DHT22;8207;52.494;4.654;2023-06-14T09:19:07;31.00;99.90
16200;DHT22;8207;52.494;4.654;2023-06-14T09:21:35;30.60;99.90
16200;DHT22;8207;52.494;4.654;2023-06-14T09:24:03;30.70;99.90
16200;DHT22;8207;52.494;4.654;2023-06-14T09:26:32;30.90;99.90
16200;DHT22;8207;52.494;4.654;2023-06-14T09:28:59;30.90;99.90
16200;DHT22;8207;52.494;4.654;2023-06-14T09:31:26;30.90;99.90
16200;DHT22;8207;52.494;4.654;2023-06-14T09:33:57;30.90;99.90
16200;DHT22;8207;52.494;4.654;2023-06-14T09:36:25;30.70;99.90
16200;DHT22;8207;52.494;4.654;2023-06-14T09:38:53;30.60;99.90
16200;DHT22;8207;52.494;4.654;2023-06-14T09:41:20;30.60;99.90
16200;DHT22;8207;52.494;4.654;2023-06-14T09:43:49;30.80;99.90
16200;DHT22;8207;52.494;4.654;2023-06-14T09:46:16;31.00;99.90
16200;DHT22;8207;52.494;4.654;2023-06-14T09:48:43;31.20;99.90
16200;DHT22;8207;52.494;4.654;2023-06-14T09:51:14;30.80;99.90
16200;DHT22;8207;52.494;4.654;2023-06-14T09:53:44;30.40;99.90
16200;DHT22;8207;52.494;4.654;2023-06-14T09:56:13;30.40;99.90
16200;DHT22;8207;52.494;4.654;2023-06-14T09:58:40;30.30;99.90
16200;DHT22;8207;52.494;4.654;2023-06-14T10:01:09;30.40;99.90
16200;DHT22;8207;52.494;4.654;2023-06-14T10:03:39;30.60;99.90
16200;DHT22;8207;52.494;4.654;2023-06-14T10:06:09;31.00;99.90
16200;DHT22;8207;52.494;4.654;2023-06-14T10:08:36;31.10;99.90
16200;DHT22;8207;52.494;4.654;2023-06-14T10:11:04;31.50;99.90
16200;DHT22;8207;52.494;4.654;2023-06-14T10:13:32;31.70;99.90
16200;DHT22;8207;52.494;4.654;2023-06-14T10:16:05;32.00;99.90
16200;DHT22;8207;52.494;4.654;2023-06-14T10:18:41;32.00;99.90
16200;DHT22;8207;52.494;4.654;2023-06-14T10:21:16;31.20;99.90
16200;DHT22;8207;52.494;4.654;2023-06-14T10:23:46;30.70;99.90
16200;DHT22;8207;52.494;4.654;2023-06-14T10:26:20;30.60;99.90
16200;DHT22;8207;52.494;4.654;2023-06-14T10:28:58;30.60;99.90
16200;DHT22;8207;52.494;4.654;2023-06-14T10:31:41;30.80;99.90
16200;DHT22;8207;52.494;4.654;2023-06-14T10:34:10;30.90;99.90
16200;DHT22;8207;52.494;4.654;2023-06-14T10:36:38;30.70;99.90
16200;DHT22;8207;52.494;4.654;2023-06-14T10:39:10;31.00;99.90
16200;DHT22;8207;52.494;4.654;2023-06-14T10:41:38;30.80;99.90
16200;DHT22;8207;52.494;4.654;2023-06-14T10:44:31;30.40;99.90
16200;DHT22;8207;52.494;4.654;2023-06-14T10:46:58;30.10;99.90
16200;DHT22;8207;52.494;4.654;2023-06-14T10:49:39;29.80;99.90
16200;DHT22;8207;52.494;4.654;2023-06-14T10:52:08;29.60;99.90
16200;DHT22;8207;52.494;4.654;2023-06-14T10:55:00;29.40;99.90
16200;DHT22;8207;52.494;4.654;2023-06-14T10:57:29;29.40;99.90
16200;DHT22;8207;52.494;4.654;2023-06-14T10:59:58;29.20;99.90
16200;DHT22;8207;52.494;4.654;2023-06-14T11:05:26;29.00;99.90
16200;DHT22;8207;52.494;4.654;2023-06-14T11:08:11;29.10;99.90
16200;DHT22;8207;52.494;4.654;2023-06-14T11:10:43;28.90;99.90
16200;DHT22;8207;52.494;4.654;2023-06-14T11:13:11;28.70;99.90
16200;DHT22;8207;52.494;4.654;2023-06-14T11:15:39;28.40;99.90
16200;DHT22;8207;52.494;4.654;2023-06-14T11:18:09;28.60;99.90
16200;DHT22;8207;52.494;4.654;2023-06-14T11:20:40;28.80;99.90
16200;DHT22;8207;52.494;4.654;2023-06-14T11:23:07;29.10;99.90
16200;DHT22;8207;52.494;4.654;2023-06-14T11:25:33;29.40;99.90
16200;DHT22;8207;52.494;4.654;2023-06-14T11:28:00;29.30;99.90
16200;DHT22;8207;52.494;4.654;2023-06-14T11:30:28;29.20;99.90
16200;DHT22;8207;52.494;4.654;2023-06-14T11:32:55;28.90;99.90
16200;DHT22;8207;52.494;4.654;2023-06-14T11:35:23;29.20;99.90
16200;DHT22;8207;52.494;4.654;2023-06-14T11:37:54;29.20;99.90
16200;DHT22;8207;52.494;4.654;2023-06-14T11:40:24;29.20;99.90
16200;DHT22;8207;52.494;4.654;2023-06-14T11:42:58;29.20;99.90
16200;DHT22;8207;52.494;4.654;2023-06-14T11:45:26;29.50;99.90
16200;DHT22;8207;52.494;4.654;2023-06-14T11:47:55;29.60;99.90
16200;DHT22;8207;52.494;4.654;2023-06-14T11:50:23;29.70;99.90
16200;DHT22;8207;52.494;4.654;2023-06-14T11:52:54;29.90;99.90
16200;DHT22;8207;52.494;4.654;2023-06-14T11:55:22;30.00;99.90
16200;DHT22;8207;52.494;4.654;2023-06-14T11:57:49;29.70;99.90
16200;DHT22;8207;52.494;4.654;2023-06-14T12:00:17;29.70;99.90
16200;DHT22;8207;52.494;4.654;2023-06-14T12:02:52;29.70;99.90
16200;DHT22;8207;52.494;4.654;2023-06-14T12:05:21;29.70;99.90
16200;DHT22;8207;52.494;4.654;2023-06-14T12:07:48;29.30;99.90
16200;DHT22;8207;52.494;4.654;2023-06-14T12:10:17;29.30;99.90
16200;DHT22;8207;52.494;4.654;2023-06-14T12:12:44;28.90;99.90
16200;DHT22;8207;52.494;4.654;2023-06-14T12:15:11;28.80;99.90
16200;DHT22;8207;52.494;4.654;2023-06-14T12:17:39;28.70;99.90
16200;DHT22;8207;52.494;4.654;2023-06-14T12:20:08;28.80;99.90
16200;DHT22;8207;52.494;4.654;2023-06-14T12:22:46;28.70;99.90
16200;DHT22;8207;52.494;4.654;2023-06-14T12:25:27;28.60;99.90
16200;DHT22;8207;52.494;4.654;2023-06-14T12:27:56;28.40;99.90
16200;DHT22;8207;52.494;4.654;2023-06-14T12:30:24;28.50;99.90
16200;DHT22;8207;52.494;4.654;2023-06-14T12:32:51;28.80;99.90
16200;DHT22;8207;52.494;4.654;2023-06-14T12:35:18;29.00;99.90
16200;DHT22;8207;52.494;4.654;2023-06-14T12:37:45;28.90;99.90
16200;DHT22;8207;52.494;4.654;2023-06-14T12:40:12;28.80;99.90
16200;DHT22;8207;52.494;4.654;2023-06-14T12:42:41;28.90;99.90
16200;DHT22;8207;52.494;4.654;2023-06-14T12:45:09;28.70;99.90
16200;DHT22;8207;52.494;4.654;2023-06-14T12:47:36;28.80;99.90
16200;DHT22;8207;52.494;4.654;2023-06-14T12:50:04;28.80;99.90
16200;DHT22;8207;52.494;4.654;2023-06-14T12:52:31;28.50;99.90
16200;DHT22;8207;52.494;4.654;2023-06-14T12:55:01;28.20;99.90
16200;DHT22;8207;52.494;4.654;2023-06-14T12:57:28;28.10;99.90
16200;DHT22;8207;52.494;4.654;2023-06-14T12:59:56;28.30;99.90
16200;DHT22;8207;52.494;4.654;2023-06-14T13:02:23;28.30;99.90
16200;DHT22;8207;52.494;4.654;2023-06-14T13:04:51;28.30;99.90
16200;DHT22;8207;52.494;4.654;2023-06-14T13:07:18;28.40;99.90
16200;DHT22;8207;52.494;4.654;2023-06-14T13:09:45;28.60;99.90
16200;DHT22;8207;52.494;4.654;2023-06-14T13:12:12;28.60;99.90
16200;DHT22;8207;52.494;4.654;2023-06-14T13:14:40;28.50;99.90
16200;DHT22;8207;52.494;4.654;2023-06-14T13:17:10;28.60;99.90
16200;DHT22;8207;52.494;4.654;2023-06-14T13:19:37;28.50;99.90
16200;DHT22;8207;52.494;4.654;2023-06-14T13:22:04;28.50;99.90
16200;DHT22;8207;52.494;4.654;2023-06-14T13:24:31;28.60;99.90
16200;DHT22;8207;52.494;4.654;2023-06-14T13:26:58;28.80;99.90
16200;DHT22;8207;52.494;4.654;2023-06-14T13:29:25;28.60;99.90
16200;DHT22;8207;52.494;4.654;2023-06-14T13:31:52;28.60;99.90
16200;DHT22;8207;52.494;4.654;2023-06-14T13:34:20;28.40;99.90
16200;DHT22;8207;52.494;4.654;2023-06-14T13:36:48;28.30;99.90
16200;DHT22;8207;52.494;4.654;2023-06-14T13:39:15;28.40;99.90
16200;DHT22;8207;52.494;4.654;2023-06-14T13:41:42;28.50;99.90
16200;DHT22;8207;52.494;4.654;2023-06-14T13:44:09;28.60;99.90
16200;DHT22;8207;52.494;4.654;2023-06-14T13:46:36;28.70;99.90
16200;DHT22;8207;52.494;4.654;2023-06-14T13:49:03;28.60;99.90
16200;DHT22;8207;52.494;4.654;2023-06-14T13:51:32;28.60;99.90
16200;DHT22;8207;52.494;4.654;2023-06-14T13:54:00;28.50;99.90
16200;DHT22;8207;52.494;4.654;2023-06-14T13:56:27;28.40;99.90
16200;DHT22;8207;52.494;4.654;2023-06-14T13:58:55;28.50;99.90
16200;DHT22;8207;52.494;4.654;2023-06-14T14:01:22;28.30;99.90
16200;DHT22;8207;52.494;4.654;2023-06-14T14:03:51;28.10;99.90
16200;DHT22;8207;52.494;4.654;2023-06-14T14:06:18;27.90;99.90
16200;DHT22;8207;52.494;4.654;2023-06-14T14:08:46;28.00;99.90
16200;DHT22;8207;52.494;4.654;2023-06-14T14:11:13;27.90;99.90
16200;DHT22;8207;52.494;4.654;2023-06-14T14:13:41;27.90;99.90
16200;DHT22;8207;52.494;4.654;2023-06-14T14:16:08;27.80;99.90
16200;DHT22;8207;52.494;4.654;2023-06-14T14:18:36;27.90;99.90
16200;DHT22;8207;52.494;4.654;2023-06-14T14:21:03;27.80;99.90
16200;DHT22;8207;52.494;4.654;2023-06-14T14:23:30;27.90;99.90
16200;DHT22;8207;52.494;4.654;2023-06-14T14:25:59;27.70;99.90
16200;DHT22;8207;52.494;4.654;2023-06-14T14:28:29;27.90;99.90
16200;DHT22;8207;52.494;4.654;2023-06-14T14:30:56;28.00;99.90
16200;DHT22;8207;52.494;4.654;2023-06-14T14:33:23;28.10;99.90
16200;DHT22;8207;52.494;4.654;2023-06-14T14:35:50;28.00;99.90
16200;DHT22;8207;52.494;4.654;2023-06-14T14:38:17;27.90;99.90
16200;DHT22;8207;52.494;4.654;2023-06-14T14:40:45;28.00;99.90
16200;DHT22;8207;52.494;4.654;2023-06-14T14:43:13;28.10;99.90
16200;DHT22;8207;52.494;4.654;2023-06-14T14:45:40;28.10;99.90
16200;DHT22;8207;52.494;4.654;2023-06-14T14:48:07;28.00;99.90
16200;DHT22;8207;52.494;4.654;2023-06-14T14:50:34;27.80;99.90
16200;DHT22;8207;52.494;4.654;2023-06-14T14:53:01;27.90;99.90
16200;DHT22;8207;52.494;4.654;2023-06-14T14:55:28;27.70;99.90
16200;DHT22;8207;52.494;4.654;2023-06-14T14:57:55;27.60;99.90
16200;DHT22;8207;52.494;4.654;2023-06-14T15:00:23;27.70;99.90
16200;DHT22;8207;52.494;4.654;2023-06-14T15:02:50;27.80;99.90
16200;DHT22;8207;52.494;4.654;2023-06-14T15:05:17;27.70;99.90
16200;DHT22;8207;52.494;4.654;2023-06-14T15:07:44;27.60;99.90
16200;DHT22;8207;52.494;4.654;2023-06-14T15:10:11;27.50;99.90
16200;DHT22;8207;52.494;4.654;2023-06-14T15:12:38;27.40;99.90
16200;DHT22;8207;52.494;4.654;2023-06-14T15:15:06;27.40;99.90
16200;DHT22;8207;52.494;4.654;2023-06-14T15:17:36;27.30;99.90
16200;DHT22;8207;52.494;4.654;2023-06-14T15:20:03;27.20;99.90
16200;DHT22;8207;52.494;4.654;2023-06-14T15:22:31;27.30;99.90
16200;DHT22;8207;52.494;4.654;2023-06-14T15:24:59;27.40;99.90
16200;DHT22;8207;52.494;4.654;2023-06-14T15:27:25;27.40;99.90
16200;DHT22;8207;52.494;4.654;2023-06-14T15:29:53;27.30;99.90
16200;DHT22;8207;52.494;4.654;2023-06-14T15:32:20;27.30;99.90
16200;DHT22;8207;52.494;4.654;2023-06-14T15:34:48;27.20;99.90
16200;DHT22;8207;52.494;4.654;2023-06-14T15:37:15;27.20;99.90
16200;DHT22;8207;52.494;4.654;2023-06-14T15:39:42;27.20;99.90
16200;DHT22;8207;52.494;4.654;2023-06-14T15:42:09;27.20;99.90
16200;DHT22;8207;52.494;4.654;2023-06-14T15:44:37;27.10;99.90
16200;DHT22;8207;52.494;4.654;2023-06-14T15:47:04;27.10;99.90
16200;DHT22;8207;52.494;4.654;2023-06-14T15:49:32;27.00;99.90
16200;DHT22;8207;52.494;4.654;2023-06-14T15:52:01;26.90;99.90
16200;DHT22;8207;52.494;4.654;2023-06-14T15:54:27;27.00;99.90